createdAt,value
2024-05-09T00:00:40.420Z,13.82
2024-05-09T00:03:09.695Z,13.82
2024-05-09T00:05:38.112Z,13.82
2024-05-09T00:08:06.085Z,13.85
2024-05-09T00:10:38.103Z,13.86
2024-05-09T00:13:07.101Z,13.87
2024-05-09T00:15:35.209Z,13.88
2024-05-09T00:18:03.296Z,13.89
2024-05-09T00:20:37.653Z,13.88
2024-05-09T00:23:08.041Z,13.87
2024-05-09T00:25:38.270Z,13.84
2024-05-09T00:28:05.929Z,13.84
2024-05-09T00:30:35.779Z,13.84
2024-05-09T00:33:05.144Z,13.83
2024-05-09T00:35:33.108Z,13.83
2024-05-09T00:38:00.319Z,13.82
2024-05-09T00:40:37.634Z,13.81
2024-05-09T00:43:10.402Z,13.79
2024-05-09T00:45:37.569Z,13.78
2024-05-09T00:48:08.595Z,13.77
2024-05-09T00:50:39.756Z,13.75
2024-05-09T00:53:08.425Z,13.70
2024-05-09T00:55:36.637Z,13.68
2024-05-09T00:58:05.432Z,13.68
2024-05-09T01:00:39.347Z,13.67
2024-05-09T01:03:08.705Z,13.66
2024-05-09T01:05:39.203Z,13.63
2024-05-09T01:08:07.350Z,13.63
2024-05-09T01:10:35.587Z,13.63
2024-05-09T01:13:03.729Z,13.63
2024-05-09T01:15:30.781Z,13.62
2024-05-09T01:18:01.505Z,13.59
2024-05-09T01:20:39.124Z,13.58
2024-05-09T01:23:14.382Z,13.56
2024-05-09T01:25:43.350Z,13.55
2024-05-09T01:28:10.530Z,13.53
2024-05-09T01:30:38.233Z,13.52
2024-05-09T01:33:08.111Z,13.52
2024-05-09T01:35:36.806Z,13.50
2024-05-09T01:38:04.276Z,13.50
2024-05-09T01:40:38.399Z,13.48
2024-05-09T01:43:07.104Z,13.46
2024-05-09T01:45:34.212Z,13.44
2024-05-09T01:48:01.472Z,13.43
2024-05-09T01:50:37.944Z,13.40
2024-05-09T01:53:08.416Z,13.39
2024-05-09T01:55:38.049Z,13.39
2024-05-09T01:58:05.129Z,13.39
2024-05-09T02:00:38.871Z,13.39
2024-05-09T02:03:10.034Z,13.39
2024-05-09T02:05:37.879Z,13.38
2024-05-09T02:08:05.696Z,13.35
2024-05-09T02:10:33.504Z,13.34
2024-05-09T02:13:03.316Z,13.33
2024-05-09T02:15:30.147Z,13.32
2024-05-09T02:17:57.296Z,13.32
2024-05-09T02:20:33.107Z,13.30
2024-05-09T02:23:04.255Z,13.28
2024-05-09T02:25:31.789Z,13.27
2024-05-09T02:27:58.727Z,13.26
2024-05-09T02:32:58.180Z,13.25
2024-05-09T02:35:26.456Z,13.25
2024-05-09T02:37:53.549Z,13.25
2024-05-09T02:40:28.297Z,13.25
2024-05-09T02:43:00.770Z,13.25
2024-05-09T02:45:30.242Z,13.23
2024-05-09T02:47:57.399Z,13.22
2024-05-09T02:50:33.120Z,13.20
2024-05-09T02:53:04.877Z,13.19
2024-05-09T02:55:31.721Z,13.16
2024-05-09T02:57:58.550Z,13.14
2024-05-09T03:00:34.463Z,13.11
2024-05-09T03:03:10.342Z,13.09
2024-05-09T03:05:39.784Z,13.05
2024-05-09T03:08:07.476Z,13.02
2024-05-09T03:10:36.792Z,12.99
2024-05-09T03:13:06.529Z,12.97
2024-05-09T03:15:33.377Z,12.98
2024-05-09T03:18:00.899Z,12.98
2024-05-09T03:20:34.557Z,12.99
2024-05-09T03:23:03.282Z,12.98
2024-05-09T03:25:30.313Z,12.97
2024-05-09T03:27:57.209Z,12.97
2024-05-09T03:30:36.001Z,12.93
2024-05-09T03:33:10.079Z,12.91
2024-05-09T03:35:39.820Z,12.89
2024-05-09T03:38:06.660Z,12.88
2024-05-09T03:40:33.477Z,12.89
2024-05-09T03:43:00.272Z,12.90
2024-05-09T03:45:27.038Z,12.90
2024-05-09T03:47:54.002Z,12.84
2024-05-09T03:50:29.528Z,12.78
2024-05-09T03:53:03.372Z,12.74
2024-05-09T03:55:31.008Z,12.71
2024-05-09T03:57:57.904Z,12.69
2024-05-09T04:00:31.486Z,12.67
2024-05-09T04:03:05.894Z,12.66
2024-05-09T04:05:34.700Z,12.68
2024-05-09T04:08:04.990Z,12.72
2024-05-09T04:10:34.196Z,12.73
2024-05-09T04:13:02.677Z,12.76
2024-05-09T04:15:29.768Z,12.76
2024-05-09T04:17:56.835Z,12.76
2024-05-09T04:20:33.643Z,12.77
2024-05-09T04:23:10.748Z,12.77
2024-05-09T04:25:38.019Z,12.77
2024-05-09T04:28:05.739Z,12.77
2024-05-09T04:30:38.157Z,12.78
2024-05-09T04:33:09.558Z,12.80
2024-05-09T04:35:38.942Z,12.80
2024-05-09T04:38:08.759Z,12.82
2024-05-09T04:40:37.117Z,12.81
2024-05-09T04:43:05.578Z,12.79
2024-05-09T04:45:32.879Z,12.78
2024-05-09T04:48:00.211Z,12.78
2024-05-09T04:50:35.897Z,12.77
2024-05-09T04:53:06.233Z,12.76
2024-05-09T04:55:36.369Z,12.76
2024-05-09T04:58:08.082Z,12.76
2024-05-09T05:00:37.383Z,12.76
2024-05-09T05:03:07.385Z,12.75
2024-05-09T05:05:37.888Z,12.75
2024-05-09T05:08:11.654Z,12.76
2024-05-09T05:10:41.396Z,12.77
2024-05-09T05:13:20.207Z,12.77
2024-05-09T05:15:52.150Z,12.78
2024-05-09T05:18:19.562Z,12.78
2024-05-09T05:20:47.105Z,12.81
2024-05-09T05:23:15.920Z,12.82
2024-05-09T05:25:50.059Z,12.84
2024-05-09T05:28:17.614Z,12.85
2024-05-09T05:30:45.310Z,12.86
2024-05-09T05:33:14.404Z,12.88
2024-05-09T05:35:42.067Z,12.89
2024-05-09T05:38:10.160Z,12.90
2024-05-09T05:40:38.838Z,12.92
2024-05-09T05:43:15.793Z,12.94
2024-05-09T05:45:42.608Z,12.95
2024-05-09T05:48:10.049Z,12.97
2024-05-09T05:50:38.415Z,12.98
2024-05-09T05:53:06.721Z,13.00
2024-05-09T05:55:33.944Z,13.05
2024-05-09T05:58:01.333Z,13.07
2024-05-09T06:00:38.137Z,13.11
2024-05-09T06:03:07.578Z,13.13
2024-05-09T06:05:35.757Z,13.15
2024-05-09T06:08:02.782Z,13.18
2024-05-09T06:10:37.453Z,13.20
2024-05-09T06:13:06.817Z,13.22
2024-05-09T06:15:36.293Z,13.24
2024-05-09T06:18:05.765Z,13.25
2024-05-09T06:20:36.452Z,13.26
2024-05-09T06:23:05.628Z,13.29
2024-05-09T06:25:32.748Z,13.31
2024-05-09T06:28:00.051Z,13.32
2024-05-09T06:30:36.560Z,13.34
2024-05-09T06:33:12.482Z,13.38
2024-05-09T06:35:41.589Z,13.38
2024-05-09T06:38:09.459Z,13.39
2024-05-09T06:40:40.227Z,13.42
2024-05-09T06:43:11.198Z,13.46
2024-05-09T06:45:39.900Z,13.49
2024-05-09T06:48:10.473Z,13.50
2024-05-09T06:50:39.234Z,13.51
2024-05-09T06:53:07.471Z,13.54
2024-05-09T06:55:34.651Z,13.58
2024-05-09T06:58:01.537Z,13.60
2024-05-09T07:00:35.715Z,13.63
2024-05-09T07:03:12.440Z,13.65
2024-05-09T07:05:40.790Z,13.67
2024-05-09T07:08:08.258Z,13.69
2024-05-09T07:10:36.485Z,13.72
2024-05-09T07:13:08.217Z,13.76
2024-05-09T07:15:34.981Z,13.79
2024-05-09T07:18:01.939Z,13.81
2024-05-09T07:20:34.722Z,13.82
2024-05-09T07:23:02.296Z,13.85
2024-05-09T07:25:29.500Z,13.87
2024-05-09T07:27:56.375Z,13.89
2024-05-09T07:30:27.933Z,13.91
2024-05-09T07:33:00.528Z,13.92
2024-05-09T07:35:27.791Z,13.96
2024-05-09T07:37:57.457Z,13.99
2024-05-09T07:40:32.831Z,14.02
2024-05-09T07:43:03.582Z,14.05
2024-05-09T07:45:47.399Z,14.07
2024-05-09T07:53:39.165Z,14.15
2024-05-09T07:56:09.986Z,14.17
2024-05-09T07:58:37.416Z,14.20
2024-05-09T08:01:04.926Z,14.24
2024-05-09T08:03:32.006Z,14.26
2024-05-09T08:05:58.861Z,14.30
2024-05-09T08:08:28.308Z,14.34
2024-05-09T08:10:55.195Z,14.37
2024-05-09T08:13:22.175Z,14.40
2024-05-09T08:15:49.280Z,14.43
2024-05-09T08:18:16.321Z,14.46
2024-05-09T08:20:43.210Z,14.48
2024-05-09T08:23:11.225Z,14.52
2024-05-09T08:25:40.735Z,14.54
2024-05-09T08:28:08.202Z,14.56
2024-05-09T08:30:37.356Z,14.58
2024-05-09T08:33:06.860Z,14.60
2024-05-09T08:35:35.059Z,14.63
2024-05-09T08:38:02.591Z,14.66
2024-05-09T08:40:35.424Z,14.68
2024-05-09T08:43:09.778Z,14.72
2024-05-09T08:45:42.405Z,14.76
2024-05-09T08:48:12.036Z,14.80
2024-05-09T08:50:41.154Z,14.82
2024-05-09T08:53:08.858Z,14.87
2024-05-09T08:55:40.418Z,14.91
2024-05-09T08:58:15.917Z,14.97
2024-05-09T09:00:44.212Z,15.01
2024-05-09T09:03:15.696Z,15.05
2024-05-09T09:05:48.024Z,15.09
2024-05-09T09:08:15.708Z,15.12
2024-05-09T09:10:43.459Z,15.13
2024-05-09T09:13:13.221Z,15.16
2024-05-09T09:15:46.995Z,15.19
2024-05-09T09:18:14.987Z,15.23
2024-05-09T09:20:41.976Z,15.26
2024-05-09T09:23:09.087Z,15.31
2024-05-09T09:25:39.358Z,15.35
2024-05-09T09:28:07.644Z,15.40
2024-05-09T09:30:39.381Z,15.43
2024-05-09T09:33:06.851Z,15.45
2024-05-09T09:35:35.877Z,15.47
2024-05-09T09:38:04.508Z,15.54
2024-05-09T09:40:37.327Z,15.58
2024-05-09T09:43:13.178Z,15.63
2024-05-09T09:45:44.160Z,15.68
2024-05-09T09:48:14.705Z,15.71
2024-05-09T09:50:42.023Z,15.77
2024-05-09T09:53:10.391Z,15.83
2024-05-09T09:55:39.795Z,15.85
2024-05-09T09:58:09.735Z,15.86
2024-05-09T10:00:39.347Z,15.93
2024-05-09T10:03:09.077Z,15.99
2024-05-09T10:05:36.750Z,16.06
2024-05-09T10:08:06.397Z,16.11
2024-05-09T10:10:34.871Z,16.15
2024-05-09T10:13:03.642Z,16.18
2024-05-09T10:15:31.411Z,16.23
2024-05-09T10:18:05.591Z,16.28
2024-05-09T10:20:42.944Z,16.36
2024-05-09T10:23:23.947Z,16.37
2024-05-09T10:25:58.113Z,16.39
2024-05-09T10:28:28.114Z,16.38
2024-05-09T10:31:08.240Z,16.39
2024-05-09T10:33:37.091Z,16.43
2024-05-09T10:36:11.039Z,16.43
2024-05-09T10:38:39.874Z,16.45
2024-05-09T10:41:06.850Z,16.46
2024-05-09T10:43:34.014Z,16.46
2024-05-09T10:46:02.023Z,16.47
2024-05-09T10:48:29.111Z,16.48
2024-05-09T10:50:56.166Z,16.49
2024-05-09T10:53:25.619Z,16.51
2024-05-09T10:55:56.609Z,16.56
2024-05-09T10:58:23.474Z,16.60
2024-05-09T11:00:50.876Z,16.66
2024-05-09T11:03:18.473Z,16.74
2024-05-09T11:05:47.566Z,16.79
2024-05-09T11:08:14.821Z,16.81
2024-05-09T11:10:45.140Z,16.82
2024-05-09T11:13:12.106Z,16.84
2024-05-09T11:15:39.887Z,16.87
2024-05-09T11:18:07.089Z,16.92
2024-05-09T11:20:35.569Z,16.93
2024-05-09T11:23:05.008Z,16.96
2024-05-09T11:25:33.271Z,16.97
2024-05-09T11:28:03.186Z,17.00
2024-05-09T11:30:34.697Z,17.07
2024-05-09T11:33:01.759Z,17.12
2024-05-09T11:35:29.459Z,17.16
2024-05-09T11:37:56.366Z,17.20
2024-05-09T11:40:26.032Z,17.29
2024-05-09T11:42:59.382Z,17.38
2024-05-09T11:45:28.970Z,17.41
2024-05-09T11:47:56.049Z,17.46
2024-05-09T11:50:29.682Z,17.49
2024-05-09T11:52:59.773Z,17.51
2024-05-09T11:55:28.232Z,17.57
2024-05-09T11:57:55.913Z,17.61
2024-05-09T12:00:33.690Z,17.65
2024-05-09T12:03:06.659Z,17.68
2024-05-09T12:05:34.379Z,17.67
2024-05-09T12:08:01.831Z,17.71
2024-05-09T12:10:33.575Z,17.75
2024-05-09T12:13:03.141Z,17.80
2024-05-09T12:15:31.110Z,17.79
2024-05-09T12:18:00.223Z,17.78
2024-05-09T12:20:37.156Z,17.75
2024-05-09T12:23:06.710Z,17.76
2024-05-09T12:25:33.718Z,17.76
2024-05-09T12:28:01.014Z,17.80
2024-05-09T12:30:36.094Z,17.85
2024-05-09T12:33:06.694Z,17.88
2024-05-09T12:35:36.261Z,17.92
2024-05-09T12:38:03.666Z,17.95
2024-05-09T12:40:36.615Z,17.96
2024-05-09T12:43:06.516Z,17.98
2024-05-09T12:45:33.677Z,18.02
2024-05-09T12:48:01.060Z,18.07
2024-05-09T12:50:32.783Z,18.11
2024-05-09T12:53:04.698Z,18.15
2024-05-09T12:55:40.344Z,18.20
2024-05-09T12:58:15.431Z,18.28
2024-05-09T13:00:42.552Z,18.31
2024-05-09T13:03:09.601Z,18.37
2024-05-09T13:05:36.627Z,18.44
2024-05-09T13:08:07.191Z,18.50
2024-05-09T13:10:34.991Z,18.53
2024-05-09T13:13:02.534Z,18.58
2024-05-09T13:15:30.222Z,18.61
2024-05-09T13:18:00.333Z,18.68
2024-05-09T13:20:33.391Z,18.73
2024-05-09T13:23:06.720Z,18.78
2024-05-09T13:25:35.094Z,18.83
2024-05-09T13:28:02.535Z,18.85
2024-05-09T13:30:38.480Z,18.89
2024-05-09T13:33:08.952Z,18.90
2024-05-09T13:35:36.319Z,18.93
2024-05-09T13:38:05.905Z,18.96
2024-05-09T13:40:35.302Z,18.97
2024-05-09T13:43:04.376Z,18.95
2024-05-09T13:45:31.670Z,18.96
2024-05-09T13:47:59.158Z,18.95
2024-05-09T13:50:33.896Z,18.92
2024-05-09T13:53:07.255Z,18.87
2024-05-09T13:55:37.383Z,18.86
2024-05-09T13:58:04.707Z,18.87
2024-05-09T14:00:42.408Z,18.88
2024-05-09T14:03:14.791Z,18.89
2024-05-09T14:05:42.163Z,18.92
2024-05-09T14:08:13.685Z,18.94
2024-05-09T14:10:44.482Z,18.95
2024-05-09T14:13:11.809Z,18.94
2024-05-09T14:15:38.834Z,18.95
2024-05-09T14:18:07.987Z,18.96
2024-05-09T14:20:35.497Z,18.96
2024-05-09T14:23:02.252Z,18.96
2024-05-09T14:25:36.537Z,18.96
2024-05-09T14:28:06.456Z,18.97
2024-05-09T14:30:37.333Z,18.96
2024-05-09T14:33:07.093Z,18.93
2024-05-09T14:35:34.894Z,18.90
2024-05-09T14:38:01.933Z,18.92
2024-05-09T14:40:40.558Z,18.94
2024-05-09T14:43:11.281Z,18.94
2024-05-09T14:45:38.650Z,18.94
2024-05-09T14:48:06.986Z,18.92
2024-05-09T14:50:37.561Z,18.89
2024-05-09T14:53:07.367Z,18.86
2024-05-09T14:55:39.832Z,18.84
2024-05-09T14:58:08.603Z,18.83
2024-05-09T15:00:40.138Z,18.83
2024-05-09T15:03:09.209Z,18.83
2024-05-09T15:05:36.067Z,18.82
2024-05-09T15:08:05.989Z,18.81
2024-05-09T15:10:35.764Z,18.82
2024-05-09T15:13:08.708Z,18.83
2024-05-09T15:15:37.617Z,18.84
2024-05-09T15:18:05.586Z,18.85
2024-05-09T15:20:36.173Z,18.86
2024-05-09T15:23:06.550Z,18.84
2024-05-09T15:25:34.820Z,18.82
2024-05-09T15:28:01.899Z,18.81
2024-05-09T15:30:33.521Z,18.81
2024-05-09T15:33:04.165Z,18.82
2024-05-09T15:35:31.441Z,18.82
2024-05-09T15:37:58.466Z,18.82
2024-05-09T15:40:35.528Z,18.81
2024-05-09T15:43:07.292Z,18.80
2024-05-09T15:45:37.307Z,18.81
2024-05-09T15:48:05.590Z,18.80
2024-05-09T15:50:38.196Z,18.81
2024-05-09T15:53:08.694Z,18.83
2024-05-09T15:55:36.442Z,18.83
2024-05-09T15:58:04.310Z,18.83
2024-05-09T16:00:37.793Z,18.83
2024-05-09T16:03:12.625Z,18.84
2024-05-09T16:05:41.540Z,18.85
2024-05-09T16:08:08.866Z,18.84
2024-05-09T16:10:36.733Z,18.85
2024-05-09T16:13:04.918Z,18.91
2024-05-09T16:15:32.100Z,19.00
2024-05-09T16:17:59.480Z,19.13
2024-05-09T16:20:37.431Z,19.34
2024-05-09T16:23:08.057Z,19.52
2024-05-09T16:25:35.293Z,19.67
2024-05-09T16:28:03.801Z,19.77
2024-05-09T16:30:35.386Z,19.80
2024-05-09T16:33:04.012Z,19.86
2024-05-09T16:35:35.163Z,19.92
2024-05-09T16:38:03.103Z,20.01
2024-05-09T16:40:37.567Z,20.08
2024-05-09T16:43:07.932Z,20.10
2024-05-09T16:45:35.372Z,20.05
2024-05-09T16:48:02.643Z,19.98
2024-05-09T16:50:33.977Z,19.90
2024-05-09T16:53:06.692Z,19.82
2024-05-09T16:55:35.752Z,19.75
2024-05-09T16:58:03.634Z,19.70
2024-05-09T17:00:39.213Z,19.66
2024-05-09T17:03:11.345Z,19.62
2024-05-09T17:05:39.431Z,19.58
2024-05-09T17:08:09.394Z,19.56
2024-05-09T17:10:36.821Z,19.53
2024-05-09T17:13:06.087Z,19.48
2024-05-09T17:15:34.402Z,19.41
2024-05-09T17:18:02.042Z,19.30
2024-05-09T17:20:33.667Z,19.22
2024-05-09T17:23:03.577Z,19.17
2024-05-09T17:25:33.308Z,19.13
2024-05-09T17:28:06.267Z,19.10
2024-05-09T17:30:36.794Z,19.05
2024-05-09T17:33:07.371Z,19.02
2024-05-09T17:35:35.460Z,19.00
2024-05-09T17:38:02.593Z,18.97
2024-05-09T17:40:33.812Z,18.94
2024-05-09T17:43:07.042Z,18.93
2024-05-09T17:45:37.651Z,18.91
2024-05-09T17:48:05.391Z,18.89
2024-05-09T17:50:35.919Z,18.86
2024-05-09T17:53:05.263Z,18.84
2024-05-09T17:55:32.721Z,18.83
2024-05-09T17:57:59.865Z,18.81
2024-05-09T18:00:37.390Z,18.79
2024-05-09T18:03:08.401Z,18.75
2024-05-09T18:05:36.923Z,18.73
2024-05-09T18:08:05.336Z,18.69
2024-05-09T18:10:36.839Z,18.64
2024-05-09T18:13:06.895Z,18.60
2024-05-09T18:15:37.263Z,18.58
2024-05-09T18:18:05.455Z,18.56
2024-05-09T18:20:41.422Z,18.52
2024-05-09T18:23:13.371Z,18.49
2024-05-09T18:25:40.905Z,18.46
2024-05-09T18:28:08.238Z,18.43
2024-05-09T18:30:38.180Z,18.40
2024-05-09T18:33:07.799Z,18.37
2024-05-09T18:35:35.583Z,18.34
2024-05-09T18:38:03.050Z,18.31
2024-05-09T18:40:34.508Z,18.27
2024-05-09T18:43:06.712Z,18.23
2024-05-09T18:45:38.587Z,18.15
2024-05-09T18:48:07.716Z,18.12
2024-05-09T18:50:38.572Z,18.07
2024-05-09T18:53:08.488Z,18.04
2024-05-09T18:55:35.626Z,17.99
2024-05-09T18:58:03.531Z,17.95
2024-05-09T19:00:35.352Z,17.91
2024-05-09T19:03:11.354Z,17.88
2024-05-09T19:05:40.977Z,17.85
2024-05-09T19:08:08.675Z,17.82
2024-05-09T19:10:38.470Z,17.79
2024-05-09T19:13:10.394Z,17.76
2024-05-09T19:15:40.248Z,17.74
2024-05-09T19:18:11.787Z,17.72
2024-05-09T19:20:39.206Z,17.67
2024-05-09T19:23:07.265Z,17.64
2024-05-09T19:25:35.047Z,17.62
2024-05-09T19:28:02.294Z,17.58
2024-05-09T19:30:37.366Z,17.54
2024-05-09T19:33:14.596Z,17.50
2024-05-09T19:35:42.026Z,17.48
2024-05-09T19:38:08.985Z,17.45
2024-05-09T19:40:36.473Z,17.41
2024-05-09T19:43:05.111Z,17.39
2024-05-09T19:45:33.915Z,17.36
2024-05-09T19:48:02.426Z,17.31
2024-05-09T19:50:39.986Z,17.29
2024-05-09T19:53:11.431Z,17.26
2024-05-09T19:55:38.789Z,17.23
2024-05-09T19:58:07.307Z,17.22
2024-05-09T20:00:36.947Z,17.21
2024-05-09T20:03:06.569Z,17.18
2024-05-09T20:05:37.164Z,17.18
2024-05-09T20:08:05.056Z,17.15
2024-05-09T20:10:34.279Z,17.12
2024-05-09T20:13:03.588Z,17.11
2024-05-09T20:15:31.345Z,17.08
2024-05-09T20:17:58.378Z,17.06
2024-05-09T20:20:33.672Z,17.05
2024-05-09T20:23:08.149Z,17.03
2024-05-09T20:25:35.104Z,17.00
2024-05-09T20:28:02.074Z,16.99
2024-05-09T20:30:32.638Z,16.97
2024-05-09T20:33:04.104Z,16.96
2024-05-09T20:35:32.808Z,16.93
2024-05-09T20:38:01.379Z,16.90
2024-05-09T20:40:35.562Z,16.89
2024-05-09T20:43:06.026Z,16.86
2024-05-09T20:45:33.665Z,16.84
2024-05-09T20:48:01.084Z,16.82
2024-05-09T20:50:36.542Z,16.81
2024-05-09T20:53:08.936Z,16.80
2024-05-09T20:55:38.905Z,16.78
2024-05-09T20:58:06.025Z,16.75
2024-05-09T21:00:40.164Z,16.73
2024-05-09T21:03:11.276Z,16.69
2024-05-09T21:05:39.015Z,16.68
2024-05-09T21:08:06.861Z,16.67
2024-05-09T21:10:34.833Z,16.68
2024-05-09T21:13:05.660Z,16.66
2024-05-09T21:15:33.250Z,16.65
2024-05-09T21:18:00.234Z,16.64
2024-05-09T21:20:31.900Z,16.64
2024-05-09T21:23:00.623Z,16.62
2024-05-09T21:25:27.741Z,16.61
2024-05-09T21:27:54.873Z,16.60
2024-05-09T21:32:54.272Z,16.59
2024-05-09T21:35:21.371Z,16.58
2024-05-09T21:37:48.365Z,16.57
2024-05-09T21:40:24.311Z,16.55
2024-05-09T21:42:58.341Z,16.52
2024-05-09T21:45:27.857Z,16.51
2024-05-09T21:47:54.975Z,16.48
2024-05-09T21:50:28.713Z,16.48
2024-05-09T21:53:03.831Z,16.46
2024-05-09T21:55:30.704Z,16.44
2024-05-09T21:57:57.662Z,16.44
2024-05-09T22:00:34.736Z,16.41
2024-05-09T22:03:05.124Z,16.39
2024-05-09T22:05:32.604Z,16.37
2024-05-09T22:07:59.923Z,16.35
2024-05-09T22:10:33.110Z,16.32
2024-05-09T22:13:03.444Z,16.31
2024-05-09T22:15:35.648Z,16.30
2024-05-09T22:18:03.694Z,16.27
2024-05-09T22:20:36.836Z,16.24
2024-05-09T22:23:06.178Z,16.22
2024-05-09T22:25:33.502Z,16.19
2024-05-09T22:28:01.267Z,16.19
2024-05-09T22:33:01.665Z,16.14
2024-05-09T22:35:28.532Z,16.11
2024-05-09T22:37:55.448Z,16.12
2024-05-09T22:40:29.537Z,16.11
2024-05-09T22:43:06.185Z,16.09
2024-05-09T22:45:33.399Z,16.06
2024-05-09T22:48:03.077Z,16.04
2024-05-09T22:50:33.291Z,16.04
2024-05-09T22:53:00.846Z,16.03
2024-05-09T22:55:27.914Z,16.00
2024-05-09T22:57:54.935Z,16.01
2024-05-09T23:00:29.457Z,15.99
2024-05-09T23:02:59.685Z,15.97
2024-05-09T23:05:29.824Z,15.95
2024-05-09T23:07:56.958Z,15.94
2024-05-09T23:10:31.510Z,15.92
2024-05-09T23:13:03.246Z,15.91
2024-05-09T23:15:30.322Z,15.89
2024-05-09T23:17:58.131Z,15.88
2024-05-09T23:20:36.238Z,15.86
2024-05-09T23:23:05.886Z,15.85
2024-05-09T23:25:32.781Z,15.83
2024-05-09T23:27:59.772Z,15.82
2024-05-09T23:30:37.180Z,15.82
2024-05-09T23:33:08.999Z,15.80
2024-05-09T23:35:38.673Z,15.80
2024-05-09T23:38:05.570Z,15.79
2024-05-09T23:43:02.571Z,15.77
2024-05-09T23:45:29.564Z,15.76
2024-05-09T23:47:56.511Z,15.74
2024-05-09T23:50:30.671Z,15.74
2024-05-09T23:53:04.787Z,15.72
2024-05-09T23:55:32.201Z,15.71
2024-05-09T23:57:59.592Z,15.69
